Time;durP1;ratioP1;P1;durP2;ratioP2;P2;SDS_P1;SDS_P2;PMS_P1;PMS_P2;Temp;Humidity;BMP_temperature;BMP_pressure;BME280_temperature;BME280_humidity;BME280_pressure;Samples;Min_cycle;Max_cycle;Signal;HPM_P1;HPM_P2
2022/06/13 00:00:31;;;;;;;5.23;3.40;;;16.70;99.90;;;;;;5051389;28;20506;-84
2022/06/13 00:02:58;;;;;;;8.70;4.57;;;16.70;99.90;;;;;;5050830;28;20185;-84
2022/06/13 00:05:24;;;;;;;9.30;3.67;;;16.70;99.90;;;;;;5046638;28;20502;-84
2022/06/13 00:07:49;;;;;;;8.23;3.10;;;16.80;99.90;;;;;;5042365;28;20433;-84
2022/06/13 00:10:15;;;;;;;8.57;3.00;;;16.80;99.90;;;;;;5047392;28;20186;-84
2022/06/13 00:12:42;;;;;;;8.67;3.60;;;16.80;99.90;;;;;;5032880;28;20231;-84
2022/06/13 00:15:12;;;;;;;4.43;3.40;;;16.80;99.90;;;;;;5034933;28;20207;-85
2022/06/13 00:17:37;;;;;;;4.57;3.03;;;16.80;99.90;;;;;;5051133;28;20435;-84
2022/06/13 00:20:07;;;;;;;4.23;3.50;;;16.90;99.90;;;;;;5050285;28;20466;-84
2022/06/13 00:22:32;;;;;;;7.20;3.67;;;17.00;99.90;;;;;;5049943;28;20199;-83
2022/06/13 00:24:58;;;;;;;6.00;3.10;;;17.20;99.90;;;;;;5047992;28;20655;-83
2022/06/13 00:27:23;;;;;;;6.70;3.47;;;17.30;99.90;;;;;;5049943;28;20205;-83
2022/06/13 00:29:50;;;;;;;5.60;3.53;;;17.30;99.90;;;;;;5053685;28;20201;-84
2022/06/13 00:32:16;;;;;;;7.40;3.90;;;17.20;99.90;;;;;;5050099;28;20263;-84
2022/06/13 00:34:42;;;;;;;8.10;3.80;;;17.00;99.90;;;;;;5051559;28;20510;-84
2022/06/13 00:37:08;;;;;;;5.80;4.00;;;17.00;99.90;;;;;;5050130;28;20428;-85
2022/06/13 00:39:34;;;;;;;6.03;4.37;;;17.00;99.90;;;;;;5047120;28;20420;-83
2022/06/13 00:42:00;;;;;;;7.07;3.70;;;17.00;99.90;;;;;;5046603;28;20698;-84
2022/06/13 00:44:29;;;;;;;4.27;3.70;;;16.90;99.90;;;;;;5051059;28;20492;-84
2022/06/13 00:46:55;;;;;;;5.70;3.47;;;16.90;99.90;;;;;;5052515;28;20201;-84
2022/06/13 00:49:33;;;;;;;3.80;3.30;;;16.90;99.90;;;;;;5050920;28;20463;-83
2022/06/13 00:52:09;;;;;;;6.20;3.80;;;16.80;99.90;;;;;;5048096;28;20832;-83
2022/06/13 00:54:37;;;;;;;7.40;3.60;;;16.80;99.90;;;;;;5050211;28;20911;-83
2022/06/13 00:57:05;;;;;;;10.50;3.20;;;16.70;99.90;;;;;;5049144;28;20854;-84
2022/06/13 00:59:33;;;;;;;6.30;3.67;;;16.70;99.90;;;;;;5051138;28;20424;-84
2022/06/13 01:01:59;;;;;;;4.00;2.97;;;16.60;99.90;;;;;;5050562;28;20452;-83
2022/06/13 01:04:25;;;;;;;6.67;3.73;;;16.60;99.90;;;;;;5049265;28;20487;-82
2022/06/13 01:06:51;;;;;;;6.17;4.03;;;16.50;99.90;;;;;;5050534;28;21009;-82
2022/06/13 01:11:16;;;;;;;7.93;3.17;;;16.50;99.90;;;;;;5049919;28;20266;-83
2022/06/13 01:12:08;;;;;;;4.63;3.30;;;16.50;99.90;;;;;;5050494;28;20434;-82
2022/06/13 01:14:36;;;;;;;4.53;3.27;;;16.50;99.90;;;;;;5075565;23;20482;-83
2022/06/13 01:17:04;;;;;;;6.13;2.93;;;16.50;99.90;;;;;;5083158;28;20879;-83
2022/06/13 01:19:30;;;;;;;4.00;2.60;;;16.50;99.90;;;;;;5064128;28;20406;-83
2022/06/13 01:22:07;;;;;;;4.40;2.93;;;16.50;99.90;;;;;;5082103;28;20406;-85
2022/06/13 01:25:00;;;;;;;6.57;3.73;;;16.50;99.90;;;;;;5082695;28;20207;-83
2022/06/13 01:27:45;;;;;;;6.30;3.30;;;16.60;99.90;;;;;;5082925;28;20407;-83
2022/06/13 01:30:48;;;;;;;12.30;3.17;;;16.60;99.90;;;;;;5081771;28;20514;-83
2022/06/13 01:33:32;;;;;;;7.90;3.20;;;16.50;99.90;;;;;;5062997;28;20459;-83
2022/06/13 01:36:28;;;;;;;3.40;2.47;;;16.50;99.90;;;;;;5064295;28;20442;-84
2022/06/13 01:38:53;;;;;;;9.20;3.40;;;16.60;99.90;;;;;;5081540;28;20390;-84
2022/06/13 01:41:37;;;;;;;6.43;3.27;;;16.60;99.90;;;;;;5082351;28;20774;-84
2022/06/13 01:44:20;;;;;;;4.10;2.50;;;16.60;99.90;;;;;;5081572;28;20192;-84
2022/06/13 01:47:07;;;;;;;7.00;3.30;;;16.60;99.90;;;;;;5064335;28;20442;-85
2022/06/13 01:49:47;;;;;;;5.37;2.50;;;16.60;99.90;;;;;;5080911;28;20442;-85
2022/06/13 01:52:28;;;;;;;3.37;2.20;;;16.70;99.90;;;;;;5082912;28;20391;-85
2022/06/13 01:55:27;;;;;;;5.67;2.37;;;16.70;99.90;;;;;;5082394;28;20419;-85
2022/06/13 01:57:58;;;;;;;6.83;2.73;;;16.70;99.90;;;;;;5082403;28;20387;-84
2022/06/13 02:00:29;;;;;;;5.20;2.53;;;16.70;99.90;;;;;;5082139;28;20418;-85
2022/06/13 02:03:16;;;;;;;9.33;2.97;;;16.60;99.90;;;;;;5063572;28;20399;-85
2022/06/13 02:05:48;;;;;;;8.03;2.47;;;16.60;99.90;;;;;;5064342;28;20460;-85
2022/06/13 02:08:21;;;;;;;7.97;3.10;;;16.60;99.90;;;;;;5081505;28;20445;-84
2022/06/13 02:11:02;;;;;;;6.97;2.80;;;16.60;99.90;;;;;;5081523;28;20398;-85
2022/06/13 02:13:40;;;;;;;7.10;2.53;;;16.50;99.90;;;;;;5081550;28;20449;-85
2022/06/13 02:16:31;;;;;;;9.27;2.53;;;16.40;99.90;;;;;;5081892;28;20418;-84
2022/06/13 02:19:03;;;;;;;7.60;2.77;;;16.30;99.90;;;;;;5081455;28;20433;-84
2022/06/13 02:22:00;;;;;;;4.60;2.23;;;16.20;99.90;;;;;;5081872;28;20422;-85
2022/06/13 02:24:33;;;;;;;4.50;2.13;;;16.10;99.90;;;;;;5046801;28;20769;-85
2022/06/13 02:27:02;;;;;;;8.73;2.53;;;16.10;99.90;;;;;;5063612;28;20407;-84
2022/06/13 02:29:37;;;;;;;6.33;1.83;;;16.10;99.90;;;;;;5081144;28;20453;-84
2022/06/13 02:32:12;;;;;;;8.90;2.60;;;16.10;99.90;;;;;;5081316;28;20888;-84
2022/06/13 02:34:43;;;;;;;3.63;2.30;;;16.00;99.90;;;;;;5062479;28;20448;-84
2022/06/13 02:37:15;;;;;;;10.43;2.90;;;16.00;99.90;;;;;;5080722;28;20399;-84
2022/06/13 02:40:10;;;;;;;8.67;2.40;;;15.90;99.90;;;;;;5062191;28;20439;-84
2022/06/13 02:43:00;;;;;;;6.00;2.33;;;16.00;99.90;;;;;;5062505;28;20444;-85
2022/06/13 02:45:32;;;;;;;4.37;2.50;;;15.80;99.90;;;;;;5081077;28;20391;-85
2022/06/13 02:48:16;;;;;;;3.60;2.50;;;15.80;99.90;;;;;;5080762;28;20904;-85
2022/06/13 02:51:15;;;;;;;9.10;2.87;;;15.60;99.90;;;;;;5061934;28;20461;-84
2022/06/13 02:53:50;;;;;;;10.07;2.90;;;15.50;99.90;;;;;;5078612;28;20871;-85
2022/06/13 02:56:35;;;;;;;9.18;3.67;;;15.50;99.90;;;;;;5079794;28;20386;-85
2022/06/13 02:59:29;;;;;;;9.93;2.97;;;15.50;99.90;;;;;;5080409;28;20556;-85
2022/06/13 03:02:00;;;;;;;8.00;2.80;;;15.40;99.90;;;;;;5080982;28;20422;-84
2022/06/13 03:04:46;;;;;;;8.40;3.60;;;15.30;99.90;;;;;;5080488;28;20445;-85
2022/06/13 03:07:38;;;;;;;10.50;3.23;;;15.30;99.90;;;;;;5081114;28;20497;-85
2022/06/13 03:10:17;;;;;;;7.27;2.47;;;15.30;99.90;;;;;;5062399;28;20496;-84
2022/06/13 03:13:07;;;;;;;4.53;2.60;;;15.20;99.90;;;;;;5080480;28;20397;-84
2022/06/13 03:15:51;;;;;;;5.43;3.08;;;15.20;99.90;;;;;;5080910;28;20422;-84
2022/06/13 03:18:31;;;;;;;8.20;2.60;;;15.30;99.90;;;;;;5080694;28;20178;-84
2022/06/13 03:21:28;;;;;;;10.20;2.60;;;15.30;99.90;;;;;;5072227;28;20390;-84
2022/06/13 03:23:59;;;;;;;8.80;2.83;;;15.30;99.90;;;;;;5064796;28;20806;-84
2022/06/13 03:26:39;;;;;;;10.63;3.20;;;15.30;99.90;;;;;;5056403;28;20403;-84
2022/06/13 03:29:15;;;;;;;11.30;2.90;;;15.30;99.90;;;;;;5076068;28;20469;-84
2022/06/13 03:31:49;;;;;;;9.80;2.57;;;15.30;99.90;;;;;;5060263;28;20473;-83
2022/06/13 03:34:20;;;;;;;3.27;2.20;;;15.30;99.90;;;;;;5080944;28;20436;-83
2022/06/13 03:37:06;;;;;;;3.43;2.27;;;15.30;99.90;;;;;;5084929;28;20948;-83
2022/06/13 03:39:35;;;;;;;7.20;3.10;;;15.20;99.90;;;;;;5084631;28;20407;-83
2022/06/13 03:42:14;;;;;;;13.97;2.47;;;15.30;99.90;;;;;;5085212;28;21005;-84
2022/06/13 03:44:48;;;;;;;6.20;3.38;;;15.20;99.90;;;;;;5066997;28;20434;-84
2022/06/13 03:47:21;;;;;;;6.00;2.97;;;15.20;99.90;;;;;;5085170;28;20187;-84
2022/06/13 03:50:15;;;;;;;4.20;2.17;;;15.20;99.90;;;;;;5071288;28;20447;-83
2022/06/13 03:52:45;;;;;;;9.52;3.25;;;15.10;99.90;;;;;;5085230;28;20412;-83
2022/06/13 03:55:17;;;;;;;10.07;3.22;;;15.10;99.90;;;;;;5085336;28;20647;-83
2022/06/13 03:57:50;;;;;;;10.80;3.10;;;15.20;99.90;;;;;;5084622;28;20153;-83
2022/06/13 04:00:24;;;;;;;7.75;2.85;;;15.10;99.90;;;;;;5071385;28;20294;-83
2022/06/13 04:02:52;;;;;;;8.63;3.70;;;15.00;99.90;;;;;;5074254;28;20180;-83
2022/06/13 04:05:23;;;;;;;5.37;2.60;;;15.10;99.90;;;;;;5066443;28;20211;-83
2022/06/13 04:07:49;;;;;;;7.93;2.55;;;15.00;99.90;;;;;;5085153;28;20727;-83
2022/06/13 04:10:17;;;;;;;4.60;3.57;;;15.10;99.90;;;;;;5084332;28;20183;-83
2022/06/13 04:13:10;;;;;;;8.98;3.20;;;15.00;99.90;;;;;;5084526;28;20161;-83
2022/06/13 04:15:53;;;;;;;7.03;3.13;;;15.10;99.90;;;;;;5076494;28;20179;-83
2022/06/13 04:18:48;;;;;;;9.10;4.40;;;16.00;99.90;;;;;;5077238;28;20433;-83
2022/06/13 04:21:38;;;;;;;8.63;3.30;;;17.20;99.90;;;;;;5065490;28;20391;-84
2022/06/13 04:24:34;;;;;;;10.27;3.17;;;19.00;99.90;;;;;;5085008;28;20493;-84
2022/06/13 04:27:09;;;;;;;8.40;3.23;;;19.50;99.90;;;;;;5059575;28;20454;-83
2022/06/13 04:30:09;;;;;;;9.23;4.07;;;19.50;99.90;;;;;;5066773;28;20454;-83
2022/06/13 04:33:04;;;;;;;11.07;3.40;;;20.00;99.90;;;;;;5083350;28;20429;-84
2022/06/13 04:35:32;;;;;;;5.83;2.67;;;20.20;99.90;;;;;;5066130;28;20411;-83
2022/06/13 04:38:00;;;;;;;8.43;3.23;;;20.20;99.90;;;;;;5066101;28;20495;-84
2022/06/13 04:40:28;;;;;;;7.30;2.97;;;21.10;99.90;;;;;;5057850;28;20428;-83
2022/06/13 04:42:55;;;;;;;6.07;3.37;;;22.10;99.90;;;;;;5082089;28;20436;-83
2022/06/13 04:45:41;;;;;;;11.17;2.70;;;22.40;99.90;;;;;;5081712;28;20461;-83
2022/06/13 04:48:08;;;;;;;6.90;2.73;;;23.60;99.90;;;;;;5075490;28;20410;-84
2022/06/13 04:50:42;;;;;;;9.30;3.47;;;23.50;99.90;;;;;;5069967;28;20427;-83
2022/06/13 04:53:16;;;;;;;10.77;3.10;;;23.40;99.90;;;;;;5065553;28;20418;-84
2022/06/13 04:55:45;;;;;;;7.93;2.77;;;24.40;99.90;;;;;;5071597;28;20415;-84
2022/06/13 04:58:35;;;;;;;10.10;3.20;;;24.80;99.90;;;;;;5063256;28;20407;-84
2022/06/13 05:01:17;;;;;;;5.90;3.00;;;24.40;99.90;;;;;;5053836;28;20423;-84
2022/06/13 05:03:46;;;;;;;6.97;3.70;;;23.70;99.90;;;;;;5071316;28;20798;-84
2022/06/13 05:06:30;;;;;;;8.30;3.50;;;23.30;99.90;;;;;;5049835;28;20443;-84
2022/06/13 05:09:01;;;;;;;7.90;2.87;;;24.00;99.90;;;;;;5069056;28;20459;-83
2022/06/13 05:11:32;;;;;;;6.20;3.30;;;23.80;99.90;;;;;;5080743;28;20414;-83
2022/06/13 05:14:08;;;;;;;4.00;2.83;;;24.40;99.90;;;;;;5083594;28;20442;-83
2022/06/13 05:17:01;;;;;;;11.93;2.73;;;25.30;99.90;;;;;;5082899;28;20398;-83
2022/06/13 05:19:41;;;;;;;4.30;2.80;;;27.20;98.00;;;;;;5072339;28;20447;-84
2022/06/13 05:22:14;;;;;;;5.63;2.37;;;25.90;94.80;;;;;;5072467;28;20995;-84
2022/06/13 05:25:05;;;;;;;17.93;4.30;;;26.10;94.90;;;;;;5072870;28;20529;-84
2022/06/13 05:27:31;;;;;;;6.13;3.40;;;25.50;98.30;;;;;;5063898;28;20399;-84
2022/06/13 05:29:57;;;;;;;5.53;3.47;;;;;;;;;;5044204;28;20876;-83
2022/06/13 05:32:23;;;;;;;7.83;3.37;;;26.10;93.40;;;;;;5045227;28;20173;-84
2022/06/13 05:34:50;;;;;;;7.80;3.87;;;26.50;93.40;;;;;;5061627;28;20501;-83
2022/06/13 05:37:16;;;;;;;10.07;3.80;;;26.00;96.00;;;;;;5061435;28;20471;-83
2022/06/13 05:39:42;;;;;;;8.67;3.30;;;27.80;95.10;;;;;;5061207;28;20510;-84
2022/06/13 05:42:10;;;;;;;8.77;4.33;;;27.20;90.70;;;;;;5056203;28;20431;-84
2022/06/13 05:44:36;;;;;;;11.10;3.80;;;;;;;;;;5060846;28;20445;-84
2022/06/13 05:47:02;;;;;;;12.63;3.80;;;28.10;92.50;;;;;;5072362;28;20408;-84
2022/06/13 05:49:28;;;;;;;8.17;2.97;;;27.70;92.80;;;;;;5077009;28;20442;-84
2022/06/13 05:51:53;;;;;;;10.90;3.63;;;27.80;89.90;;;;;;5073063;28;20191;-84
2022/06/13 05:54:20;;;;;;;6.77;3.20;;;;;;;;;;5060639;28;20193;-84
2022/06/13 05:56:46;;;;;;;8.63;3.67;;;;;;;;;;5067003;28;20564;-84
2022/06/13 05:59:12;;;;;;;8.10;3.20;;;;;;;;;;5058519;28;20493;-84
2022/06/13 06:01:38;;;;;;;5.80;3.20;;;;;;;;;;5069972;28;20529;-84
2022/06/13 06:04:04;;;;;;;6.17;3.27;;;;;;;;;;5062290;28;20439;-83
2022/06/13 06:06:32;;;;;;;5.33;2.80;;;24.20;94.10;;;;;;5061157;28;20411;-82
2022/06/13 06:08:58;;;;;;;6.27;2.83;;;22.80;92.20;;;;;;5060212;28;20451;-81
2022/06/13 06:11:26;;;;;;;6.33;2.67;;;24.80;93.90;;;;;;5062016;28;20414;-81
2022/06/13 06:13:52;;;;;;;8.70;3.20;;;25.10;94.20;;;;;;5041880;28;20459;-84
2022/06/13 06:16:20;;;;;;;14.90;3.23;;;25.00;93.60;;;;;;5040775;28;20418;-84
2022/06/13 06:18:47;;;;;;;10.20;2.93;;;25.40;93.10;;;;;;5059062;28;20392;-84
2022/06/13 06:21:13;;;;;;;7.97;2.77;;;25.20;96.50;;;;;;5056013;28;20458;-84
2022/06/13 06:23:38;;;;;;;7.33;3.40;;;25.00;95.10;;;;;;5063308;28;20435;-84
2022/06/13 06:26:05;;;;;;;4.77;3.00;;;26.20;94.90;;;;;;5059918;28;20782;-84
2022/06/13 06:28:32;;;;;;;11.70;3.37;;;26.30;95.00;;;;;;5053333;28;20197;-83
2022/06/13 06:30:59;;;;;;;8.70;3.30;;;26.40;91.60;;;;;;5073964;28;20513;-84
2022/06/13 06:33:26;;;;;;;6.47;3.40;;;25.70;93.00;;;;;;5078019;28;20422;-83
2022/06/13 06:35:52;;;;;;;6.90;3.10;;;;;;;;;;5068381;28;20430;-83
2022/06/13 06:38:23;;;;;;;7.50;3.30;;;26.30;95.70;;;;;;5068380;28;20748;-83
2022/06/13 06:40:49;;;;;;;5.73;2.90;;;;;;;;;;5047528;28;20828;-83
2022/06/13 06:43:15;;;;;;;8.40;3.40;;;;;;;;;;5060369;28;20404;-83
2022/06/13 06:45:42;;;;;;;10.10;2.80;;;28.10;92.20;;;;;;5059028;28;20408;-85
2022/06/13 06:48:19;;;;;;;6.97;3.37;;;26.40;91.20;;;;;;5069230;28;20522;-84
2022/06/13 06:50:48;;;;;;;11.30;3.30;;;25.70;92.30;;;;;;5074107;28;20421;-85
2022/06/13 06:53:14;;;;;;;10.40;3.30;;;;;;;;;;5065543;28;20845;-84
2022/06/13 07:01:12;;;;;;;7.20;3.10;;;30.50;83.90;;;;;;5071963;28;20495;-82
2022/06/13 07:03:38;;;;;;;6.10;2.97;;;31.50;78.00;;;;;;5054964;28;20782;-83
2022/06/13 07:06:04;;;;;;;8.43;4.00;;;30.50;89.70;;;;;;5056131;28;20422;-84
2022/06/13 07:08:30;;;;;;;6.43;3.00;;;30.40;86.60;;;;;;5079008;28;20447;-84
2022/06/13 07:11:53;;;;;;;9.37;2.90;;;29.90;72.00;;;;;;5082706;28;20405;-84
2022/06/13 07:13:46;;;;;;;4.70;2.93;;;;;;;;;;5087138;22;20227;-82
2022/06/13 07:16:12;;;;;;;4.33;2.90;;;;;;;;;;5079677;28;20448;-85
2022/06/13 07:18:38;;;;;;;5.10;3.10;;;;;;;;;;5080944;28;20423;-83
2022/06/13 07:21:04;;;;;;;10.47;3.30;;;;;;;;;;5081899;28;20482;-84
2022/06/13 07:23:30;;;;;;;7.73;2.83;;;;;;;;;;5082489;28;20423;-83
2022/06/13 07:25:56;;;;;;;6.83;2.77;;;;;;;;;;5055047;28;20497;-83
2022/06/13 07:28:22;;;;;;;8.53;3.10;;;;;;;;;;5081427;28;20489;-84
2022/06/13 07:30:48;;;;;;;8.07;3.13;;;;;;;;;;5077185;28;20494;-84
2022/06/13 07:33:14;;;;;;;6.80;3.13;;;;;;;;;;5065773;28;20418;-84
2022/06/13 07:35:40;;;;;;;7.87;3.10;;;;;;;;;;5077252;28;20624;-84
2022/06/13 07:38:20;;;;;;;6.17;2.80;;;29.50;62.20;;;;;;5062625;28;20434;-82
2022/06/13 07:40:51;;;;;;;4.77;2.70;;;31.00;79.30;;;;;;5077365;28;20424;-82
2022/06/13 07:43:28;;;;;;;8.23;2.90;;;30.50;64.50;;;;;;5076781;28;20469;-83
2022/06/13 07:45:54;;;;;;;8.03;2.70;;;29.40;71.60;;;;;;5077938;28;20417;-85
2022/06/13 07:48:20;;;;;;;11.73;2.53;;;;;;;;;;5077888;28;20469;-83
2022/06/13 07:50:46;;;;;;;12.13;2.40;;;;;;;;;;5077134;28;20439;-82
2022/06/13 07:53:13;;;;;;;10.23;3.43;;;;;;;;;;5061063;28;20455;-82
2022/06/13 07:55:39;;;;;;;5.40;2.70;;;;;;;;;;5073799;28;21019;-83
2022/06/13 07:58:06;;;;;;;6.83;3.00;;;29.10;65.30;;;;;;5079998;28;20754;-81
2022/06/13 08:00:34;;;;;;;6.30;2.50;;;30.70;71.00;;;;;;5085288;28;20812;-82
2022/06/13 08:03:01;;;;;;;9.07;3.43;;;29.30;58.40;;;;;;5072185;28;20417;-81
2022/06/13 08:05:28;;;;;;;7.63;2.93;;;;;;;;;;5066546;28;20869;-85
2022/06/13 08:07:53;;;;;;;9.53;2.70;;;;;;;;;;5066083;28;20437;-82
2022/06/13 08:10:20;;;;;;;3.53;2.70;;;;;;;;;;5076829;28;20527;-83
2022/06/13 08:12:46;;;;;;;10.93;2.67;;;;;;;;;;5077251;28;20444;-83
2022/06/13 08:15:13;;;;;;;6.00;3.50;;;29.30;59.80;;;;;;5044247;28;21008;-82
2022/06/13 08:17:39;;;;;;;7.83;3.40;;;;;;;;;;5063330;28;20471;-84
2022/06/13 08:20:07;;;;;;;10.17;3.00;;;29.10;59.60;;;;;;5070388;28;20435;-84
2022/06/13 08:22:33;;;;;;;6.60;3.00;;;;;;;;;;5080365;28;20794;-84
2022/06/13 08:24:59;;;;;;;12.03;3.20;;;;;;;;;;5081164;28;20441;-83
2022/06/13 08:27:26;;;;;;;9.13;2.93;;;;;;;;;;5080341;28;20419;-83
2022/06/13 08:29:52;;;;;;;5.37;2.67;;;;;;;;;;5079226;28;20454;-82
2022/06/13 08:32:18;;;;;;;9.70;2.80;;;;;;;;;;5078516;28;20837;-83
2022/06/13 08:34:44;;;;;;;9.40;3.03;;;;;;;;;;5075767;28;20489;-81
2022/06/13 08:37:10;;;;;;;6.90;2.80;;;;;;;;;;5075397;28;20469;-83
2022/06/13 08:39:36;;;;;;;3.73;2.70;;;;;;;;;;5054016;28;20427;-85
2022/06/13 08:42:30;;;;;;;7.37;2.57;;;26.50;62.90;;;;;;5075851;28;20902;-85
2022/06/13 08:45:07;;;;;;;10.00;3.47;;;25.50;65.90;;;;;;5075263;28;20436;-82
2022/06/13 08:47:32;;;;;;;7.40;4.63;;;;;;;;;;5071819;28;20980;-85
2022/06/13 08:50:16;;;;;;;9.40;3.50;;;27.40;65.50;;;;;;5071740;28;20592;-84
2022/06/13 08:53:02;;;;;;;3.97;2.60;;;27.20;67.00;;;;;;5071277;28;20449;-87
2022/06/13 08:55:47;;;;;;;12.33;3.50;;;27.00;70.40;;;;;;5074448;28;20471;-86
2022/06/13 08:58:32;;;;;;;7.97;3.60;;;27.60;63.80;;;;;;5071716;28;21178;-84
2022/06/13 09:01:06;;;;;;;9.70;2.90;;;27.90;73.00;;;;;;5056197;28;20450;-84
2022/06/13 09:03:40;;;;;;;7.30;3.07;;;28.60;69.50;;;;;;5075372;28;20925;-83
2022/06/13 09:06:21;;;;;;;5.23;3.43;;;28.20;73.50;;;;;;5074070;28;20458;-84
2022/06/13 09:09:18;;;;;;;7.93;2.83;;;27.90;63.40;;;;;;5074396;28;20462;-83
2022/06/13 09:11:51;;;;;;;5.63;3.03;;;28.40;60.90;;;;;;5052706;28;20483;-85
2022/06/13 09:14:30;;;;;;;8.57;3.33;;;28.40;67.50;;;;;;5072042;28;20474;-85
2022/06/13 09:17:18;;;;;;;5.20;2.70;;;29.10;59.30;;;;;;5055123;28;20422;-84
2022/06/13 09:19:44;;;;;;;5.30;3.17;;;30.20;69.60;;;;;;5055533;28;20445;-85
2022/06/13 09:22:51;;;;;;;10.43;4.43;;;28.80;63.20;;;;;;5073774;28;20502;-84
2022/06/13 09:25:52;;;;;;;10.60;3.70;;;26.90;58.50;;;;;;5070574;28;20189;-85
2022/06/13 09:28:26;;;;;;;17.10;3.60;;;27.40;64.80;;;;;;5037389;28;20461;-83
2022/06/13 09:30:56;;;;;;;7.80;3.00;;;28.30;59.40;;;;;;5075864;28;20529;-84
2022/06/13 09:33:22;;;;;;;6.23;2.80;;;;;;;;;;5087152;28;20424;-82
2022/06/13 09:35:57;;;;;;;9.00;3.23;;;27.20;58.40;;;;;;5078622;28;20424;-82
2022/06/13 09:38:39;;;;;;;6.80;2.40;;;26.40;57.20;;;;;;5087403;28;20430;-83
2022/06/13 09:41:20;;;;;;;11.07;3.37;;;25.00;63.00;;;;;;5064260;28;20444;-82
2022/06/13 09:43:55;;;;;;;4.63;2.50;;;24.90;63.80;;;;;;5061490;28;20423;-85
2022/06/13 09:46:52;;;;;;;10.03;3.57;;;25.80;68.30;;;;;;5077844;28;20478;-83
2022/06/13 09:49:42;;;;;;;15.83;4.00;;;27.00;65.20;;;;;;5078478;28;20501;-85
2022/06/13 09:52:19;;;;;;;7.17;2.90;;;28.00;70.10;;;;;;5076583;28;20539;-85
2022/06/13 09:55:00;;;;;;;6.57;2.70;;;26.70;61.70;;;;;;5057889;28;20980;-83
2022/06/13 09:57:51;;;;;;;5.23;2.10;;;25.50;59.00;;;;;;5055260;28;20441;-84
2022/06/13 10:00:47;;;;;;;5.90;2.10;;;25.60;59.50;;;;;;5079292;28;20405;-87
2022/06/13 10:03:21;;;;;;;9.13;2.77;;;25.10;61.30;;;;;;5088322;28;20460;-81
2022/06/13 10:06:05;;;;;;;6.30;2.83;;;25.80;60.20;;;;;;5087626;28;20448;-84
2022/06/13 10:08:31;;;;;;;3.80;2.10;;;;;;;;;;5063148;28;20464;-85
2022/06/13 10:11:19;;;;;;;4.57;2.73;;;27.60;60.50;;;;;;5080128;28;20457;-84
2022/06/13 10:14:20;;;;;;;6.63;2.87;;;26.80;58.00;;;;;;5079546;28;20473;-82
2022/06/13 10:17:01;;;;;;;4.33;2.43;;;25.50;58.80;;;;;;5080521;28;20421;-85
2022/06/13 10:19:45;;;;;;;4.73;2.27;;;24.10;63.20;;;;;;5051442;28;20436;-87
2022/06/13 10:22:25;;;;;;;7.50;2.50;;;23.50;63.60;;;;;;5050927;28;20435;-82
2022/06/13 10:25:12;;;;;;;3.93;2.13;;;24.00;63.80;;;;;;5077162;28;20454;-84
2022/06/13 10:27:38;;;;;;;6.77;2.37;;;;;;;;;;5077494;28;20789;-84
2022/06/13 10:30:23;;;;;;;3.33;2.23;;;25.50;65.00;;;;;;5058757;28;20479;-84
2022/06/13 10:33:19;;;;;;;4.50;2.23;;;25.30;65.30;;;;;;5059639;28;20449;-86
2022/06/13 10:36:00;;;;;;;6.23;2.43;;;24.90;60.50;;;;;;5075644;28;20423;-85
2022/06/13 10:38:50;;;;;;;4.20;2.13;;;24.50;64.00;;;;;;5047486;28;20441;-85
2022/06/13 10:41:16;;;;;;;5.67;2.50;;;;;;;;;;5046704;28;20454;-85
2022/06/13 10:43:42;;;;;;;7.43;2.27;;;;;;;;;;5063917;28;20560;-84
2022/06/13 10:46:11;;;;;;;4.70;2.10;;;22.60;66.40;;;;;;5058561;28;20442;-85
2022/06/13 10:48:52;;;;;;;8.70;2.10;;;22.60;67.50;;;;;;5058234;28;20457;-84
2022/06/13 10:51:18;;;;;;;3.20;2.53;;;22.60;68.90;;;;;;5075208;28;20511;-85
2022/06/13 10:54:03;;;;;;;3.10;2.27;;;22.70;71.20;;;;;;5073231;28;20491;-83
2022/06/13 10:56:36;;;;;;;3.90;1.80;;;22.90;63.80;;;;;;5059748;28;20191;-84
2022/06/13 10:59:02;;;;;;;7.80;2.47;;;;;;;;;;5057587;28;20442;-86
2022/06/13 11:01:30;;;;;;;4.37;1.60;;;23.00;68.00;;;;;;5066374;28;20457;-82
2022/06/13 11:04:19;;;;;;;7.57;2.30;;;23.00;68.80;;;;;;5086446;28;20438;-83
2022/06/13 11:06:54;;;;;;;2.73;2.10;;;22.50;64.50;;;;;;5062850;28;20422;-85
2022/06/13 11:09:29;;;;;;;6.90;2.27;;;22.50;65.00;;;;;;5050407;28;20462;-85
2022/06/13 11:11:58;;;;;;;6.70;2.47;;;22.40;65.40;;;;;;5074309;28;20475;-85
2022/06/13 11:14:37;;;;;;;6.10;2.53;;;22.40;64.00;;;;;;5086002;28;20448;-82
2022/06/13 11:22:43;;;;;;;3.33;2.00;;;22.60;67.50;;;;;;5077448;28;20537;-84
2022/06/13 11:25:16;;;;;;;2.77;1.53;;;22.40;70.40;;;;;;5072297;28;20454;-84
2022/06/13 11:27:43;;;;;;;5.90;2.00;;;;;;;;;;5058805;28;20449;-83
2022/06/13 11:30:18;;;;;;;7.00;2.00;;;23.10;70.80;;;;;;5065216;28;20459;-84
2022/06/13 11:33:06;;;;;;;3.80;2.93;;;23.20;70.70;;;;;;5075040;28;20444;-84
2022/06/13 11:35:31;;;;;;;4.87;2.10;;;22.70;70.40;;;;;;5056139;28;20505;-85
2022/06/13 11:38:23;;;;;;;4.17;1.90;;;23.00;70.70;;;;;;5057173;28;20458;-85
2022/06/13 11:41:16;;;;;;;4.73;1.70;;;23.40;70.30;;;;;;5058130;28;20200;-85
2022/06/13 11:44:14;;;;;;;6.60;2.43;;;23.40;72.60;;;;;;5074666;28;20431;-86
2022/06/13 11:46:45;;;;;;;5.90;2.30;;;22.90;65.40;;;;;;5062759;28;20446;-85
2022/06/13 11:49:15;;;;;;;6.23;2.20;;;22.70;68.30;;;;;;5061378;28;20989;-84
2022/06/13 11:51:57;;;;;;;4.57;2.17;;;23.30;68.70;;;;;;5078707;28;20599;-84
2022/06/13 11:54:32;;;;;;;4.30;2.33;;;23.50;71.30;;;;;;5069623;28;20438;-83
2022/06/13 11:57:36;;;;;;;6.53;2.60;;;23.40;69.40;;;;;;5062306;28;20433;-84
2022/06/13 12:00:06;;;;;;;3.33;2.03;;;23.40;70.00;;;;;;5061793;28;20419;-86
2022/06/13 12:02:45;;;;;;;9.57;2.23;;;23.10;67.50;;;;;;5059210;28;20450;-83
2022/06/13 12:05:23;;;;;;;4.60;2.10;;;23.10;68.50;;;;;;5047025;28;20449;-84
2022/06/13 12:07:51;;;;;;;8.07;2.10;;;22.20;68.90;;;;;;5079520;28;20977;-83
2022/06/13 12:10:22;;;;;;;4.00;1.77;;;22.20;69.50;;;;;;5075884;28;20462;-85
2022/06/13 12:12:48;;;;;;;4.10;2.30;;;;;;;;;;5073820;28;20529;-84
2022/06/13 12:15:15;;;;;;;4.07;1.60;;;23.10;68.90;;;;;;5073694;28;20476;-83
2022/06/13 12:18:17;;;;;;;3.30;2.00;;;23.10;69.50;;;;;;5074090;28;20468;-84
2022/06/13 12:21:03;;;;;;;2.13;1.40;;;23.30;69.10;;;;;;5035322;28;20436;-84
2022/06/13 12:24:03;;;;;;;3.93;1.60;;;23.20;65.50;;;;;;5075218;28;20418;-85
2022/06/13 12:26:33;;;;;;;3.27;2.23;;;22.70;65.90;;;;;;5043868;28;20431;-85
2022/06/13 12:29:23;;;;;;;3.40;2.00;;;22.90;68.10;;;;;;5075107;28;20447;-84
2022/06/13 12:31:54;;;;;;;5.43;1.77;;;23.00;66.00;;;;;;5054336;28;20533;-83
2022/06/13 12:34:30;;;;;;;7.23;2.63;;;23.10;61.80;;;;;;5067298;28;20454;-84
2022/06/13 12:37:26;;;;;;;6.20;2.30;;;22.90;64.80;;;;;;5077171;28;20438;-84
2022/06/13 12:40:07;;;;;;;4.57;2.03;;;22.80;65.30;;;;;;5055464;28;20458;-85
2022/06/13 12:43:05;;;;;;;3.63;1.80;;;22.30;63.00;;;;;;5062111;28;20454;-83
2022/06/13 12:45:31;;;;;;;5.60;1.80;;;;;;;;;;5079148;28;20434;-84
2022/06/13 12:48:09;;;;;;;3.10;1.80;;;23.10;61.40;;;;;;5064414;28;20422;-85
2022/06/13 12:50:35;;;;;;;4.07;1.60;;;;;;;;;;5086916;28;20525;-81
2022/06/13 12:53:20;;;;;;;7.17;2.10;;;23.00;64.30;;;;;;5091897;28;20453;-82
2022/06/13 12:56:03;;;;;;;3.10;1.70;;;23.20;61.50;;;;;;5088051;28;20974;-84
2022/06/13 12:58:50;;;;;;;3.60;2.20;;;23.20;59.80;;;;;;5083192;28;20429;-85
2022/06/13 13:01:22;;;;;;;6.07;2.17;;;23.00;59.30;;;;;;5082294;28;20484;-83
2022/06/13 13:04:08;;;;;;;3.73;1.80;;;23.00;59.80;;;;;;5080611;28;20427;-84
2022/06/13 13:06:52;;;;;;;3.50;3.10;;;23.80;59.30;;;;;;5057309;28;20434;-82
2022/06/13 13:09:44;;;;;;;4.10;2.10;;;23.60;59.60;;;;;;5085356;28;20458;-84
2022/06/13 13:12:29;;;;;;;4.00;2.63;;;22.80;60.00;;;;;;5124937;22;20462;-88
2022/06/13 13:15:11;;;;;;;5.90;2.43;;;22.80;63.30;;;;;;5028957;28;20484;-85
2022/06/13 13:18:01;;;;;;;7.53;2.00;;;22.70;62.40;;;;;;5026402;28;20700;-87
2022/06/13 13:20:32;;;;;;;7.63;2.00;;;22.60;61.70;;;;;;5048868;28;20439;-88
2022/06/13 13:23:35;;;;;;;5.33;1.83;;;22.40;61.60;;;;;;5017767;28;20441;-88
2022/06/13 13:26:23;;;;;;;4.67;2.10;;;22.50;62.00;;;;;;5029409;28;20447;-87
2022/06/13 13:28:57;;;;;;;2.70;1.60;;;22.80;65.00;;;;;;5026274;28;20955;-86
2022/06/13 13:31:37;;;;;;;3.80;1.97;;;22.70;62.10;;;;;;5023692;28;20491;-86
2022/06/13 13:34:51;;;;;;;5.17;2.13;;;22.90;67.60;;;;;;5024718;28;20476;-86
2022/06/13 13:37:37;;;;;;;6.53;2.43;;;23.20;62.30;;;;;;5025773;28;20421;-87
2022/06/13 13:40:25;;;;;;;8.77;2.93;;;23.40;64.30;;;;;;5009927;28;20520;-86
2022/06/13 13:42:53;;;;;;;3.00;1.97;;;23.30;62.30;;;;;;5008788;28;20872;-87
2022/06/13 13:45:51;;;;;;;5.07;1.90;;;22.40;61.20;;;;;;5023323;28;20445;-87
2022/06/13 13:48:21;;;;;;;4.67;1.70;;;22.40;62.70;;;;;;5024012;28;20436;-86
2022/06/13 13:50:55;;;;;;;5.40;2.00;;;22.10;61.60;;;;;;5024575;28;20436;-87
2022/06/13 13:53:26;;;;;;;4.67;2.23;;;22.80;61.80;;;;;;5022770;28;20451;-86
2022/06/13 13:55:57;;;;;;;4.33;2.50;;;23.20;64.10;;;;;;5014973;28;20420;-87